Bruce Crossing, MI (49912)

2:07 AM EDT on June 29, 2017 (GMT -0400)
Ewen MI | | Change Station

Elev 1181 ft 46.52 °N, 89.27 °W | Updated 31 seconds ago

Overcast
Overcast
63.9 °F
Feels Like 63.9 °F
N
2.0
Wind Variable Wind from SSW

Today
High -- | Low -- °F
--% Chance of Precip.
Yesterday
High -- | Low -- °F
Precip. -- in
Pressure 29.60 in
Visibility 5.0 miles
Clouds Overcast 600 ft
Dew Point 63 °F
Humidity 98%
Rainfall 0.00 in
Snow Depth Not available.
6:06 AM 9:53 PM
Waxing Crescent, 32% visible
METAR KLNL 290555Z AUTO 18006KT 5SM BR OVC006 18/18 A2960 RMK AO2 P0001 60001 T01830182 10183 20170 401830083
Pressure 29.60 in
Visibility 5.0 miles
Clouds Overcast 600 ft
Dew Point 63 °F
Humidity 98%
Rainfall 0.00 in
Snow Depth Not available.
6:06 AM 9:53 PM
Waxing Crescent, 32% visible
METAR KLNL 290555Z AUTO 18006KT 5SM BR OVC006 18/18 A2960 RMK AO2 P0001 60001 T01830182 10183 20170 401830083

Get Severe Weather Alerts

Thanks for signing up!

Be on the lookout for a verification email in your inbox.

You'll start receiving the daily forecast at 6 AM.

×

10-Day Weather Forecast

Almanac

Astronomy

Jun. 29, 2017 Rise Set
Actual Time
Civil Twilight
Nautical Twilight
Astronomical Twilight
Moon
Length of Visible Light
Length of Day
Tomorrow will be .
, % of the Moon is Illuminated

Today's Extremes

State Highs State Lows

Community

WunderPhotos

Category 6

Welcome to Category 6. This is the collective home for Weather Underground's featured writeups by Dr. Jeff Masters (right), Bob Henson (left), Chris Burt, and other regular contributors.

Nearby

Air Quality

  Air Quality AQ Index Pollutant
Not available.

Snow Depth

Station Depth Elevation

Earthquake Activity

City Distance Mag. Time & Date
Minimum magnitude displayed is 2.5.

Coastal Water Temperatures

Place Temperature

Stations

Nearby Weather Stations

Station Location Temp. Windchill Dew Point Humidity Wind Precip. Elev Updated Type
                   

Watches & Warnings

There are currently no watches in effect.